WetterOnline ( http://www.wetteronline.de )

Wetter aktuell Neumünster

Aktuelles Wetter: Itzehoe (26m)

6-stündlich | Neueste Meldungen
Ortszeit Temperatur Wetter
Mo, 24.09. 8:00 8.0° C leicht bewölkt
Mo, 24.09. 2:00 8.6° C wolkig
So, 23.09. 20:00 10.3° C wolkig
So, 23.09. 14:00 12.1° C bewölkt
So, 23.09. 8:00 8.9° C bedeckt
So, 23.09. 2:00 9.8° C fast wolkenlos
Sa, 22.09. 20:00 11.9° C leicht bewölkt
Sa, 22.09. 14:00 13.1° C leicht bewölkt
Ortszeit Temperatur Wetter
Mo, 24.09. 9:00 8.2° C wolkenlos
Mo, 24.09. 8:50 8.2° C wolkenlos
Mo, 24.09. 8:40 7.9° C fast wolkenlos
Mo, 24.09. 8:30 7.9° C leicht bewölkt
Mo, 24.09. 8:20 7.9° C leicht bewölkt
Mo, 24.09. 8:10 8.3° C leicht bewölkt
Mo, 24.09. 8:00 8.0° C leicht bewölkt
Mo, 24.09. 7:30 8.4° C bewölkt
Mo, 24.09. 7:00 8.3° C wolkig
Mo, 24.09. 6:30 8.7° C wolkig
Mo, 24.09. 6:00 8.8° C leicht bewölkt
Ortszeit Relative Feuchte Sichtweite
Mo, 24.09. 8:00 73% 70 km
Mo, 24.09. 2:00 81% 70 km
So, 23.09. 20:00 81% 50 km
So, 23.09. 14:00 82% 13 km
So, 23.09. 8:00 99% 3.0 km
So, 23.09. 2:00 93% 15 km
Sa, 22.09. 20:00 80% 35 km
Sa, 22.09. 14:00 77% 35 km
Ortszeit Relative Feuchte Sichtweite
Mo, 24.09. 9:00 80% 70 km
Mo, 24.09. 8:50 80% -
Mo, 24.09. 8:40 81% -
Mo, 24.09. 8:30 77% 60 km
Mo, 24.09. 8:20 77% -
Mo, 24.09. 8:10 75% -
Mo, 24.09. 8:00 73% 70 km
Mo, 24.09. 7:30 78% 8 km
Mo, 24.09. 7:00 74% 70 km
Mo, 24.09. 6:30 69% 70 km
Mo, 24.09. 6:00 71% 70 km
Ortszeit Niederschlagsmenge Niederschlagsart
Mo, 24.09. 8:00 0.5 l/m2 in 12 Std. -
Mo, 24.09. 2:00 0.2 l/m2 in 6 Std. -
So, 23.09. 20:00 0.1 l/m2 in 12 Std. -
So, 23.09. 14:00 0.1 l/m2 in 6 Std. -
So, 23.09. 8:00 0.1 l/m2 in 12 Std. -
So, 23.09. 2:00 0.1 l/m2 in 6 Std. -
Sa, 22.09. 20:00 9 l/m2 in 12 Std. -
Sa, 22.09. 14:00 3 l/m2 in 6 Std. -
Ortszeit Niederschlagsmenge Niederschlagsart
Mo, 24.09. 9:00 0.1 l/m2 in 1 Std. -
Mo, 24.09. 8:50 keine Meldung -
Mo, 24.09. 8:40 keine Meldung -
Mo, 24.09. 8:30 0.1 l/m2 in 1 Std. -
Mo, 24.09. 8:20 keine Meldung -
Mo, 24.09. 8:10 keine Meldung -
Mo, 24.09. 8:00 0.3 l/m2 in 1 Std. -
Mo, 24.09. 7:30 0.1 l/m2 in 1 Std. -
Mo, 24.09. 7:00 0.1 l/m2 in 1 Std. -
Mo, 24.09. 6:30 0.1 l/m2 in 1 Std. -
Mo, 24.09. 6:00 0.1 l/m2 in 1 Std. -
Ortszeit Stärke Spitze Richtung
km/h Bft. km/h Grad Sektor
Mo, 24.09. 8:00 15 3 50 330° NW
Mo, 24.09. 2:00 7 2 22 310° NW
So, 23.09. 20:00 7 2 14 320° NW
So, 23.09. 14:00 4 1 22 210° SW
So, 23.09. 8:00 11 2 22 250° W
So, 23.09. 2:00 13 3 28 250° W
Sa, 22.09. 20:00 11 2 36 250° W
Sa, 22.09. 14:00 15 3 52 260° W
Ortszeit Stärke Spitze Richtung
km/h Bft. km/h Grad Sektor
Mo, 24.09. 9:00 4 1 18 260° W
Mo, 24.09. 8:50 4 1 - 260° W
Mo, 24.09. 8:40 4 1 - 310° NW
Mo, 24.09. 8:30 9 2 17 330° NW
Mo, 24.09. 8:20 9 2 - 330° NW
Mo, 24.09. 8:10 7 2 - 330° NW
Mo, 24.09. 8:00 15 3 50 330° NW
Mo, 24.09. 7:30 22 4 50 330° NW
Mo, 24.09. 7:00 6 1 26 310° NW
Mo, 24.09. 6:30 14 3 25 330° NW
Mo, 24.09. 6:00 13 3 33 340° N
Ortszeit Untergrenze Bedeckung Gattung
total tief tief mittel hoch
Mo, 24.09. 8:00 900 m 5/8 1/8 - - -
Mo, 24.09. 2:00 1260 m 7/8 2/8 - - -
So, 23.09. 20:00 1230 m 6/8 4/8 - - -
So, 23.09. 14:00 1800 m 7/8 6/8 - - -
So, 23.09. 8:00 90 m 8/8 8/8 - - -
So, 23.09. 2:00 1110 m 1/8 1/8 - - -
Sa, 22.09. 20:00 1140 m 4/8 4/8 - - -
Sa, 22.09. 14:00 1170 m 3/8 1/8 - - -
Ortszeit Bedeckungsgrad in Achtel und Wolkenuntergrenze
Mo, 24.09. 9:00 keine Wolken
Mo, 24.09. 8:50 keine Wolken
Mo, 24.09. 8:40 1(1140m) 1(1380m)
Mo, 24.09. 8:30 2(1170m) 3(1500m)
Mo, 24.09. 8:20 2(1170m) 3(1500m) 4(1800m)
Mo, 24.09. 8:10 1(960m) 3(1800m) 4(3900m)
Mo, 24.09. 8:00 1(900m) 4(3000m) 5(3900m)
Mo, 24.09. 7:30 2(900m) 7(1500m) 7(1800m)
Mo, 24.09. 7:00 2(1080m) 5(2100m) 6(3000m)
Mo, 24.09. 6:30 2(1440m) 4(1800m) 5(3600m)
Mo, 24.09. 6:00 1(1290m) 3(1500m)
Ortszeit Luftdruck NN (hPa) Tendenz (hPa in 3 Std.)
Mo, 24.09. 8:00 1023 + 2,4
Mo, 24.09. 2:00 1017 + 2,8
So, 23.09. 20:00 1011 + 1,0
So, 23.09. 14:00 1011 - 1,8
So, 23.09. 8:00 1013 - 0,7
So, 23.09. 2:00 1014 - 0,1
Sa, 22.09. 20:00 1014 - 0,3
Sa, 22.09. 14:00 1014 + 0,4
Ortszeit Luftdruck NN (hPa) Tendenz (hPa in 3 Std.)
Mo, 24.09. 9:00 1023 + 2,7
Mo, 24.09. 8:50 1023 keine Meldung
Mo, 24.09. 8:40 1023 keine Meldung
Mo, 24.09. 8:30 1023 + 2,6
Mo, 24.09. 8:20 1023 keine Meldung
Mo, 24.09. 8:10 1023 keine Meldung
Mo, 24.09. 8:00 1023 + 2,4
Mo, 24.09. 7:30 1023 + 3,2
Mo, 24.09. 7:00 1022 + 2,5
Mo, 24.09. 6:30 1021 + 2,4
Mo, 24.09. 6:00 1021 + 2,4
Ortszeit Schneehöhe (cm)
Mo, 24.09. 8:00 -
Mo, 24.09. 2:00 -
So, 23.09. 20:00 -
So, 23.09. 14:00 -
So, 23.09. 8:00 -
So, 23.09. 2:00 -
Sa, 22.09. 20:00 -
Sa, 22.09. 14:00 -
Ortszeit Schneehöhe (cm)
Mo, 24.09. 9:00 -
Mo, 24.09. 8:50 -
Mo, 24.09. 8:40 -
Mo, 24.09. 8:30 -
Mo, 24.09. 8:20 -
Mo, 24.09. 8:10 -
Mo, 24.09. 8:00 -
Mo, 24.09. 7:30 -
Mo, 24.09. 7:00 -
Mo, 24.09. 6:30 -
Mo, 24.09. 6:00 -
Link zu dieser Seite / Seite empfehlen

Das Wetter in ...